createdAt,value
2022-10-12T00:01:50.928Z,7.40
2022-10-12T00:04:19.388Z,7.40
2022-10-12T00:06:47.812Z,7.40
2022-10-12T00:09:16.269Z,7.40
2022-10-12T00:11:45.279Z,7.40
2022-10-12T00:14:13.683Z,7.40
2022-10-12T00:16:43.227Z,7.40
2022-10-12T00:19:15.019Z,7.40
2022-10-12T00:21:43.554Z,7.30
2022-10-12T00:24:11.933Z,7.30
2022-10-12T00:26:40.016Z,7.30
2022-10-12T00:29:09.170Z,7.30
2022-10-12T00:31:39.599Z,7.40
2022-10-12T00:34:09.040Z,7.40
2022-10-12T00:36:37.324Z,7.40
2022-10-12T00:39:07.972Z,7.50
2022-10-12T00:41:38.641Z,7.60
2022-10-12T00:44:41.500Z,7.60
2022-10-12T00:47:25.493Z,7.60
2022-10-12T00:49:59.195Z,7.50
2022-10-12T00:52:34.449Z,7.50
2022-10-12T00:55:03.769Z,7.50
2022-10-12T00:57:31.969Z,7.70
2022-10-12T01:00:05.705Z,7.70
2022-10-12T01:02:35.644Z,7.80
2022-10-12T01:05:08.970Z,7.70
2022-10-12T01:07:37.896Z,7.60
2022-10-12T01:10:07.048Z,7.60
2022-10-12T01:12:36.238Z,7.60
2022-10-12T01:15:04.995Z,7.60
2022-10-12T01:17:42.402Z,7.60
2022-10-12T01:20:33.120Z,7.60
2022-10-12T01:23:23.555Z,7.50
2022-10-12T01:26:10.547Z,7.50
2022-10-12T01:28:52.041Z,7.50
2022-10-12T01:31:31.456Z,7.50
2022-10-12T01:34:07.699Z,7.50
2022-10-12T01:36:41.505Z,7.60
2022-10-12T01:39:16.964Z,7.70
2022-10-12T01:41:48.263Z,7.60
2022-10-12T01:44:22.225Z,7.60
2022-10-12T01:46:53.446Z,7.60
2022-10-12T01:49:25.940Z,7.70
2022-10-12T01:52:28.470Z,7.70
2022-10-12T01:55:11.606Z,7.70
2022-10-12T01:57:51.032Z,7.80
2022-10-12T02:00:20.188Z,7.80
2022-10-12T02:02:56.940Z,7.80
2022-10-12T02:05:33.793Z,7.80
2022-10-12T02:08:08.766Z,7.70
2022-10-12T02:10:39.928Z,7.70
2022-10-12T02:13:12.165Z,7.70
2022-10-12T02:15:42.785Z,7.70
2022-10-12T02:18:16.886Z,7.80
2022-10-12T02:20:47.597Z,7.60
2022-10-12T02:23:16.644Z,7.70
2022-10-12T02:25:44.984Z,7.60
2022-10-12T02:28:17.868Z,7.70
2022-10-12T02:30:51.789Z,7.70
2022-10-12T02:33:30.971Z,7.60
2022-10-12T02:36:04.029Z,7.70
2022-10-12T02:38:36.949Z,7.60
2022-10-12T02:41:07.620Z,7.60
2022-10-12T02:43:39.974Z,7.50
2022-10-12T02:46:11.374Z,7.50
2022-10-12T02:48:42.583Z,7.50
2022-10-12T02:51:12.271Z,7.40
2022-10-12T02:53:41.169Z,7.40
2022-10-12T02:56:13.607Z,7.30
2022-10-12T02:58:44.187Z,7.20
2022-10-12T03:01:16.963Z,7.20
2022-10-12T03:03:49.314Z,7.20
2022-10-12T03:06:17.402Z,7.10
2022-10-12T03:08:45.735Z,7.00
2022-10-12T03:11:16.330Z,7.00
2022-10-12T03:13:44.538Z,7.20
2022-10-12T03:16:13.726Z,7.20
2022-10-12T03:18:44.985Z,7.20
2022-10-12T03:21:14.610Z,7.10
2022-10-12T03:23:43.010Z,7.00
2022-10-12T03:26:11.371Z,7.00
2022-10-12T03:28:39.788Z,6.90
2022-10-12T03:31:08.040Z,6.80
2022-10-12T03:33:36.185Z,6.80
2022-10-12T03:36:05.835Z,7.00
2022-10-12T03:38:35.571Z,6.80
2022-10-12T03:41:06.749Z,6.90
2022-10-12T03:46:06.867Z,6.80
2022-10-12T03:48:35.081Z,6.90
2022-10-12T03:51:06.369Z,6.80
2022-10-12T03:53:35.935Z,6.70
2022-10-12T03:56:06.511Z,6.70
2022-10-12T03:58:34.710Z,6.50
2022-10-12T04:01:02.910Z,6.60
2022-10-12T04:03:31.026Z,6.70
2022-10-12T04:05:59.827Z,6.80
2022-10-12T04:08:28.493Z,6.80
2022-10-12T04:10:58.292Z,6.70
2022-10-12T04:13:26.480Z,6.70
2022-10-12T04:15:54.516Z,6.70
2022-10-12T04:18:22.677Z,6.80
2022-10-12T04:20:51.016Z,6.80
2022-10-12T04:23:19.257Z,6.80
2022-10-12T04:25:48.020Z,6.70
2022-10-12T04:28:17.461Z,6.60
2022-10-12T04:30:47.164Z,6.50
2022-10-12T04:33:15.665Z,6.30
2022-10-12T04:35:43.761Z,6.20
2022-10-12T04:38:13.021Z,6.20
2022-10-12T04:40:41.325Z,6.30
2022-10-12T04:43:09.448Z,6.30
2022-10-12T04:45:39.194Z,6.30
2022-10-12T04:48:07.484Z,6.30
2022-10-12T04:50:38.253Z,6.30
2022-10-12T04:53:06.443Z,6.20
2022-10-12T04:55:34.628Z,6.10
2022-10-12T04:58:04.825Z,6.00
2022-10-12T05:00:33.026Z,6.00
2022-10-12T05:03:02.496Z,6.00
2022-10-12T05:05:30.624Z,6.00
2022-10-12T05:07:58.765Z,6.00
2022-10-12T05:10:26.927Z,5.90
2022-10-12T05:12:55.102Z,5.90
2022-10-12T05:15:23.606Z,5.90
2022-10-12T05:17:51.813Z,6.00
2022-10-12T05:20:21.516Z,6.00
2022-10-12T05:22:49.700Z,5.90
2022-10-12T05:25:19.385Z,5.90
2022-10-12T05:27:47.536Z,5.80
2022-10-12T05:30:15.664Z,5.80
2022-10-12T05:32:44.431Z,5.80
2022-10-12T05:35:12.607Z,5.80
2022-10-12T05:37:42.559Z,5.80
2022-10-12T05:40:11.496Z,5.80
2022-10-12T05:42:42.172Z,5.90
2022-10-12T05:45:12.009Z,5.90
2022-10-12T05:47:41.474Z,5.80
2022-10-12T05:50:11.900Z,5.90
2022-10-12T05:52:41.648Z,5.90
2022-10-12T05:55:12.074Z,5.80
2022-10-12T05:57:40.419Z,6.00
2022-10-12T06:00:10.125Z,5.80
2022-10-12T06:02:38.425Z,5.70
2022-10-12T06:05:07.460Z,5.70
2022-10-12T06:07:35.712Z,5.70
2022-10-12T06:10:06.080Z,5.70
2022-10-12T06:12:34.521Z,5.80
2022-10-12T06:15:02.688Z,5.80
2022-10-12T06:17:30.843Z,5.90
2022-10-12T06:19:59.137Z,6.00
2022-10-12T06:22:27.555Z,6.00
2022-10-12T06:24:55.706Z,6.00
2022-10-12T06:27:25.417Z,6.10
2022-10-12T06:29:53.452Z,6.10
2022-10-12T06:32:21.562Z,6.10
2022-10-12T06:34:51.363Z,6.20
2022-10-12T06:37:44.610Z,6.30
2022-10-12T06:40:09.227Z,6.40
2022-10-12T06:42:39.297Z,6.40
2022-10-12T06:45:08.912Z,6.50
2022-10-12T06:47:37.833Z,6.60
2022-10-12T06:50:06.993Z,6.70
2022-10-12T06:52:38.797Z,6.90
2022-10-12T06:55:11.476Z,6.90
2022-10-12T06:57:41.094Z,7.00
2022-10-12T07:00:10.183Z,7.20
2022-10-12T07:02:40.296Z,7.30
2022-10-12T07:05:09.897Z,7.40
2022-10-12T07:07:39.324Z,7.50
2022-10-12T07:10:08.730Z,7.50
2022-10-12T07:12:39.118Z,7.60
2022-10-12T07:15:10.879Z,7.70
2022-10-12T07:17:39.219Z,7.80
2022-10-12T07:20:08.608Z,8.00
2022-10-12T07:22:37.105Z,8.10
2022-10-12T07:25:05.920Z,8.30
2022-10-12T07:27:34.059Z,8.50
2022-10-12T07:30:02.526Z,8.70
2022-10-12T07:32:34.266Z,8.80
2022-10-12T07:35:02.543Z,8.90
2022-10-12T07:37:32.953Z,9.00
2022-10-12T07:40:03.544Z,9.20
2022-10-12T07:42:31.609Z,9.30
2022-10-12T07:44:59.902Z,9.50
2022-10-12T07:47:30.622Z,9.60
2022-10-12T07:50:00.214Z,9.60
2022-10-12T07:52:28.447Z,9.80
2022-10-12T07:54:56.508Z,10.20
2022-10-12T07:57:24.744Z,10.40
2022-10-12T07:59:52.796Z,10.60
2022-10-12T08:02:33.321Z,10.80
2022-10-12T08:05:02.888Z,11.10
2022-10-12T08:07:31.055Z,11.30
2022-10-12T08:09:59.270Z,11.20
2022-10-12T08:12:29.437Z,11.40
2022-10-12T08:14:57.823Z,11.70
2022-10-12T08:17:26.029Z,11.90
2022-10-12T08:19:54.163Z,12.00
2022-10-12T08:22:23.540Z,12.10
2022-10-12T08:24:51.680Z,12.00
2022-10-12T08:27:19.661Z,12.00
2022-10-12T08:29:48.409Z,12.20
2022-10-12T08:32:17.142Z,12.40
2022-10-12T08:34:45.571Z,12.50
2022-10-12T08:37:13.873Z,12.60
2022-10-12T08:39:45.346Z,12.90
2022-10-12T08:42:25.329Z,12.90
2022-10-12T08:45:02.774Z,13.10
2022-10-12T08:47:38.874Z,13.10
2022-10-12T08:50:10.658Z,13.10
2022-10-12T08:52:44.740Z,13.00
2022-10-12T08:55:26.652Z,13.00
2022-10-12T08:57:58.062Z,13.00
2022-10-12T09:00:26.939Z,13.10
2022-10-12T09:03:05.841Z,13.10
2022-10-12T09:05:40.973Z,13.10
2022-10-12T09:08:16.180Z,13.00
2022-10-12T09:11:01.085Z,13.00
2022-10-12T09:13:43.732Z,13.30
2022-10-12T09:16:21.287Z,13.50
2022-10-12T09:18:53.549Z,13.70
2022-10-12T09:21:23.397Z,13.80
2022-10-12T09:23:51.706Z,13.80
2022-10-12T09:26:26.763Z,13.70
2022-10-12T09:28:56.690Z,13.70
2022-10-12T09:31:45.507Z,13.90
2022-10-12T09:34:18.897Z,13.90
2022-10-12T09:36:47.911Z,14.10
2022-10-12T09:39:19.935Z,13.90
2022-10-12T09:41:51.618Z,13.90
2022-10-12T09:44:27.696Z,13.70
2022-10-12T09:46:59.681Z,14.00
2022-10-12T09:49:41.642Z,14.50
2022-10-12T09:52:10.319Z,14.50
2022-10-12T09:54:42.247Z,14.30
2022-10-12T09:57:19.074Z,14.40
2022-10-12T09:59:48.542Z,14.70
2022-10-12T10:02:18.915Z,15.00
2022-10-12T10:04:50.934Z,15.20
2022-10-12T10:07:27.447Z,14.90
2022-10-12T10:10:15.810Z,15.10
2022-10-12T10:12:53.847Z,15.20
2022-10-12T10:15:28.577Z,14.80
2022-10-12T10:17:59.863Z,15.10
2022-10-12T10:20:32.615Z,15.30
2022-10-12T10:23:01.507Z,15.50
2022-10-12T10:25:29.749Z,15.30
2022-10-12T10:28:24.871Z,15.50
2022-10-12T10:31:03.352Z,15.70
2022-10-12T10:33:34.510Z,15.80
2022-10-12T10:36:05.844Z,15.60
2022-10-12T10:38:57.725Z,15.70
2022-10-12T10:41:36.292Z,15.60
2022-10-12T10:44:16.310Z,15.80
2022-10-12T10:46:50.535Z,15.90
2022-10-12T10:49:29.712Z,16.00
2022-10-12T10:52:00.732Z,16.00
2022-10-12T10:54:31.925Z,16.20
2022-10-12T10:57:05.271Z,16.00
2022-10-12T11:00:02.265Z,16.10
2022-10-12T11:02:46.576Z,16.00
2022-10-12T11:05:21.423Z,16.10
2022-10-12T11:07:52.623Z,15.80
2022-10-12T11:10:27.586Z,16.10
2022-10-12T11:13:02.140Z,15.90
2022-10-12T11:15:38.901Z,16.00
2022-10-12T11:18:15.659Z,16.40
2022-10-12T11:20:57.681Z,16.70
2022-10-12T11:23:39.840Z,16.70
2022-10-12T11:26:19.489Z,16.30
2022-10-12T11:28:47.827Z,16.40
2022-10-12T11:31:22.610Z,16.60
2022-10-12T11:33:52.179Z,16.30
2022-10-12T11:36:24.358Z,16.30
2022-10-12T11:38:56.528Z,16.50
2022-10-12T11:41:35.729Z,16.70
2022-10-12T11:44:09.328Z,17.00
2022-10-12T11:46:43.776Z,17.00
2022-10-12T11:49:16.959Z,16.60
2022-10-12T11:51:48.225Z,16.50
2022-10-12T11:54:29.667Z,16.60
2022-10-12T11:57:03.309Z,16.80
2022-10-12T11:59:35.795Z,17.10
2022-10-12T12:02:18.001Z,17.20
2022-10-12T12:04:48.410Z,17.30
2022-10-12T12:07:42.935Z,17.20
2022-10-12T12:10:52.797Z,16.60
2022-10-12T12:13:27.275Z,16.80
2022-10-12T12:16:35.937Z,16.90
2022-10-12T12:19:34.275Z,17.30
2022-10-12T12:22:27.586Z,17.20
2022-10-12T12:25:17.632Z,17.20
2022-10-12T12:27:54.306Z,17.00
2022-10-12T12:30:32.946Z,17.30
2022-10-12T12:33:07.292Z,17.20
2022-10-12T12:35:39.627Z,17.20
2022-10-12T12:38:19.768Z,17.40
2022-10-12T12:41:00.262Z,17.50
2022-10-12T12:44:02.620Z,17.30
2022-10-12T12:47:33.048Z,17.90
2022-10-12T12:50:01.261Z,18.10
2022-10-12T12:52:35.460Z,18.00
2022-10-12T12:55:38.284Z,17.90
2022-10-12T12:58:25.753Z,17.40
2022-10-12T13:01:20.895Z,17.20
2022-10-12T13:04:16.339Z,17.00
2022-10-12T13:07:21.207Z,17.20
2022-10-12T13:10:07.194Z,17.30
2022-10-12T13:12:52.802Z,17.50
2022-10-12T13:15:38.749Z,16.80
2022-10-12T13:18:46.892Z,16.60
2022-10-12T13:21:20.793Z,16.60
2022-10-12T13:23:53.637Z,16.80
2022-10-12T13:26:29.806Z,17.10
2022-10-12T13:29:01.591Z,17.10
2022-10-12T13:31:38.241Z,16.80
2022-10-12T13:34:15.884Z,16.70
2022-10-12T13:36:53.234Z,16.70
2022-10-12T13:39:24.355Z,16.80
2022-10-12T13:41:58.467Z,17.20
2022-10-12T13:44:31.806Z,17.40
2022-10-12T13:47:05.411Z,17.20
2022-10-12T13:49:44.508Z,17.20
2022-10-12T13:52:22.080Z,17.10
2022-10-12T13:54:52.502Z,17.20
2022-10-12T13:57:30.198Z,17.10
2022-10-12T14:00:03.473Z,17.20
2022-10-12T14:02:33.679Z,17.20
2022-10-12T14:05:05.585Z,17.10
2022-10-12T14:07:40.548Z,17.10
2022-10-12T14:10:19.335Z,16.80
2022-10-12T14:12:52.788Z,16.50
2022-10-12T14:15:22.292Z,16.50
2022-10-12T14:17:53.175Z,16.60
2022-10-12T14:20:32.757Z,16.60
2022-10-12T14:23:04.815Z,16.70
2022-10-12T14:25:34.909Z,16.80
2022-10-12T14:28:07.811Z,16.90
2022-10-12T14:30:40.248Z,16.90
2022-10-12T14:33:22.739Z,16.80
2022-10-12T14:35:54.064Z,16.60
2022-10-12T14:38:41.825Z,16.80
2022-10-12T14:41:34.430Z,16.90
2022-10-12T14:44:16.367Z,16.80
2022-10-12T14:46:54.130Z,16.80
2022-10-12T14:49:25.436Z,17.00
2022-10-12T14:51:56.801Z,16.90
2022-10-12T14:54:28.065Z,16.80
2022-10-12T14:56:57.768Z,16.80
2022-10-12T14:59:30.491Z,16.90
2022-10-12T15:02:00.713Z,16.90
2022-10-12T15:04:31.413Z,16.80
2022-10-12T15:07:01.733Z,16.70
2022-10-12T15:09:31.436Z,16.60
2022-10-12T15:12:00.283Z,16.60
2022-10-12T15:14:35.349Z,16.60
2022-10-12T15:17:06.149Z,16.70
2022-10-12T15:19:37.238Z,16.70
2022-10-12T15:22:10.414Z,16.70
2022-10-12T15:24:40.109Z,16.60
2022-10-12T15:27:09.971Z,16.50
2022-10-12T15:29:40.597Z,16.40
2022-10-12T15:32:13.035Z,16.40
2022-10-12T15:34:42.445Z,16.40
2022-10-12T15:37:13.781Z,16.50
2022-10-12T15:39:44.202Z,16.60
2022-10-12T15:42:13.807Z,16.60
2022-10-12T15:44:48.128Z,16.40
2022-10-12T15:47:18.339Z,16.20
2022-10-12T15:49:48.048Z,16.20
2022-10-12T15:52:18.318Z,16.10
2022-10-12T15:54:49.195Z,16.10
2022-10-12T15:57:20.355Z,16.00
2022-10-12T15:59:54.498Z,16.00
2022-10-12T16:02:30.400Z,16.00
2022-10-12T16:05:00.392Z,16.10
2022-10-12T16:07:30.808Z,16.00
2022-10-12T16:10:00.885Z,15.80
2022-10-12T16:12:30.836Z,15.80
2022-10-12T16:15:03.106Z,15.80
2022-10-12T16:17:33.099Z,15.90
2022-10-12T16:20:01.927Z,15.90
2022-10-12T16:22:31.480Z,15.90
2022-10-12T16:25:02.320Z,15.80
2022-10-12T16:27:34.145Z,15.60
2022-10-12T16:30:07.540Z,15.50
2022-10-12T16:32:38.381Z,15.50
2022-10-12T16:35:11.799Z,15.40
2022-10-12T16:37:47.042Z,15.30
2022-10-12T16:40:18.495Z,15.10
2022-10-12T16:42:53.986Z,15.00
2022-10-12T16:45:27.687Z,14.90
2022-10-12T16:47:58.383Z,14.80
2022-10-12T16:50:28.820Z,14.60
2022-10-12T16:52:59.663Z,14.50
2022-10-12T16:55:33.316Z,14.40
2022-10-12T16:58:04.175Z,14.40
2022-10-12T17:00:36.302Z,14.30
2022-10-12T17:03:09.487Z,14.10
2022-10-12T17:05:41.534Z,14.00
2022-10-12T17:08:15.671Z,13.90
2022-10-12T17:10:46.858Z,13.80
2022-10-12T17:13:17.666Z,13.70
2022-10-12T17:15:49.863Z,13.70
2022-10-12T17:18:21.841Z,13.50
2022-10-12T17:21:00.623Z,13.40
2022-10-12T17:23:32.564Z,13.40
2022-10-12T17:26:01.634Z,13.30
2022-10-12T17:28:31.077Z,13.30
2022-10-12T17:31:09.304Z,13.20
2022-10-12T17:33:39.803Z,13.20
2022-10-12T17:38:55.985Z,12.90
2022-10-12T17:41:26.938Z,12.70
2022-10-12T17:43:58.219Z,12.60
2022-10-12T17:46:30.937Z,12.60
2022-10-12T17:49:04.341Z,12.60
2022-10-12T17:51:36.716Z,12.50
2022-10-12T17:54:07.915Z,12.40
2022-10-12T17:56:36.517Z,12.40
2022-10-12T17:59:06.458Z,12.40
2022-10-12T18:01:36.356Z,12.30
2022-10-12T18:04:06.566Z,12.40
2022-10-12T18:06:36.506Z,12.50
2022-10-12T18:09:09.265Z,12.40
2022-10-12T18:11:41.152Z,12.40
2022-10-12T18:16:48.118Z,12.20
2022-10-12T18:19:19.049Z,12.10
2022-10-12T18:24:24.080Z,12.10
2022-10-12T18:26:55.422Z,12.20
2022-10-12T18:29:25.781Z,12.10
2022-10-12T18:34:27.852Z,12.10
2022-10-12T18:37:00.663Z,12.10
2022-10-12T18:39:33.123Z,12.00
2022-10-12T18:42:05.530Z,12.00
2022-10-12T18:44:36.589Z,11.90
2022-10-12T18:47:08.840Z,11.80
2022-10-12T18:49:38.940Z,11.60
2022-10-12T18:52:12.822Z,11.60
2022-10-12T18:54:45.509Z,11.60
2022-10-12T18:57:15.485Z,11.60
2022-10-12T18:59:51.979Z,11.60
2022-10-12T19:02:23.186Z,11.80
2022-10-12T19:04:57.887Z,11.80
2022-10-12T19:07:28.349Z,11.70
2022-10-12T19:09:58.986Z,11.60
2022-10-12T19:12:30.469Z,11.40
2022-10-12T19:15:01.866Z,11.60
2022-10-12T19:17:35.366Z,11.60
2022-10-12T19:20:10.056Z,11.50
2022-10-12T19:22:40.467Z,11.50
2022-10-12T19:25:10.491Z,11.50
2022-10-12T19:27:41.937Z,11.40
2022-10-12T19:30:13.628Z,11.40
2022-10-12T19:32:47.393Z,11.50
2022-10-12T19:35:18.601Z,11.50
2022-10-12T19:37:50.704Z,11.40
2022-10-12T19:40:20.263Z,11.40
2022-10-12T19:42:52.896Z,11.40
2022-10-12T19:45:23.201Z,11.50
2022-10-12T19:47:55.689Z,11.50
2022-10-12T19:50:27.009Z,11.60
2022-10-12T19:52:56.964Z,11.50
2022-10-12T19:55:28.750Z,11.60
2022-10-12T19:58:00.028Z,11.50
2022-10-12T20:00:30.284Z,11.50
2022-10-12T20:03:02.464Z,11.50
2022-10-12T20:05:33.493Z,11.50
2022-10-12T20:08:04.861Z,11.40
2022-10-12T20:10:36.849Z,11.70
2022-10-12T20:13:08.074Z,11.70
2022-10-12T20:15:37.819Z,11.60
2022-10-12T20:18:12.694Z,11.50
2022-10-12T20:20:47.058Z,11.30
2022-10-12T20:23:18.171Z,11.30
2022-10-12T20:25:49.468Z,11.10
2022-10-12T20:28:22.101Z,11.20
2022-10-12T20:30:50.812Z,11.20
2022-10-12T20:33:21.274Z,11.30
2022-10-12T20:35:52.897Z,11.30
2022-10-12T20:38:21.265Z,11.30
2022-10-12T20:40:49.696Z,11.20
2022-10-12T20:43:18.079Z,11.20
2022-10-12T20:45:46.292Z,11.10
2022-10-12T20:48:16.969Z,10.90
2022-10-12T20:50:46.818Z,10.90
2022-10-12T20:53:15.182Z,10.90
2022-10-12T20:55:45.130Z,10.90
2022-10-12T20:58:14.511Z,11.10
2022-10-12T21:00:45.435Z,11.00
2022-10-12T21:03:14.090Z,11.00
2022-10-12T21:05:44.247Z,11.00
2022-10-12T21:10:47.884Z,11.40
2022-10-12T21:13:16.357Z,11.30
2022-10-12T21:15:52.008Z,11.30
2022-10-12T21:18:20.864Z,11.00
2022-10-12T21:20:57.529Z,10.70
2022-10-12T21:23:27.188Z,10.60
2022-10-12T21:25:55.997Z,10.70
2022-10-12T21:28:24.906Z,10.80
2022-10-12T21:30:53.422Z,10.80
2022-10-12T21:33:21.851Z,10.70
2022-10-12T21:35:53.417Z,10.60
2022-10-12T21:38:22.356Z,10.60
2022-10-12T21:40:54.098Z,10.50
2022-10-12T21:43:22.494Z,10.50
2022-10-12T21:45:50.624Z,10.60
2022-10-12T21:48:18.824Z,10.50
2022-10-12T21:50:50.191Z,10.40
2022-10-12T21:53:18.261Z,10.40
2022-10-12T21:55:46.413Z,10.50
2022-10-12T21:58:15.954Z,10.50
2022-10-12T22:00:44.342Z,10.50
2022-10-12T22:03:12.691Z,10.50
2022-10-12T22:05:41.006Z,10.40
2022-10-12T22:08:12.218Z,10.20
2022-10-12T22:10:41.008Z,9.80
2022-10-12T22:13:09.446Z,9.70
2022-10-12T22:15:38.878Z,9.80
2022-10-12T22:18:12.530Z,9.80
2022-10-12T22:20:40.841Z,9.80
2022-10-12T22:23:09.030Z,9.80
2022-10-12T22:25:37.065Z,9.70
2022-10-12T22:28:05.169Z,9.70
2022-10-12T22:30:33.626Z,9.50
2022-10-12T22:33:03.128Z,9.60
2022-10-12T22:35:31.167Z,9.50
2022-10-12T22:37:59.252Z,9.50
2022-10-12T22:40:27.366Z,9.40
2022-10-12T22:42:55.602Z,9.40
2022-10-12T22:45:27.993Z,9.50
2022-10-12T22:47:56.473Z,9.50
2022-10-12T22:50:25.865Z,9.40
2022-10-12T22:52:53.966Z,9.40
2022-10-12T22:55:22.023Z,9.40
2022-10-12T22:57:50.096Z,9.40
2022-10-12T23:00:18.605Z,9.30
2022-10-12T23:02:46.600Z,9.20
2022-10-12T23:05:14.843Z,9.10
2022-10-12T23:07:44.266Z,9.10
2022-10-12T23:10:12.515Z,9.20
2022-10-12T23:12:40.831Z,9.10
2022-10-12T23:15:09.677Z,9.10
2022-10-12T23:17:37.845Z,9.10
2022-10-12T23:20:06.895Z,9.10
2022-10-12T23:22:35.561Z,9.10
2022-10-12T23:25:05.445Z,9.00
2022-10-12T23:27:33.652Z,9.00
2022-10-12T23:30:01.759Z,9.00
2022-10-12T23:32:31.358Z,9.00
2022-10-12T23:34:59.629Z,9.00
2022-10-12T23:37:30.145Z,9.00
2022-10-12T23:40:00.353Z,8.90
2022-10-12T23:42:29.810Z,8.90
2022-10-12T23:44:57.907Z,8.90
2022-10-12T23:47:25.980Z,8.80
2022-10-12T23:49:54.039Z,8.80
2022-10-12T23:52:22.151Z,8.70
2022-10-12T23:54:53.656Z,8.60
2022-10-12T23:57:45.029Z,8.60
